Airfield :
LOGIN :

Register | Disclaimer

   EN    FR    IT 

 










Legend :    VFR   Marginal VFR   IFR   Intensive IFR   Very Intensive IFR
Visi :
Ceiling :
>= 8 km
>= 3000ft
5 to 8 km
1000 to 3000 ft
1500m to 5 km
500 to 1000 ft
800 to 1500m
200 to 500 ft
< 800m
< 200 ft
Symbols :   Thunderstorms  Fog  Heavy snow  Heavy precipitations  Wind > 20 kt
SIGMETs :     Misc.  Thunderstorms  Icing  Turbulence  Mountain Waves  Volcanic Ashes






- Airport Elevation : 472 ft
- IATA code : GME


UMGG - Gomel

CURRENT METAR :
  • 291700Z 02006MPS 9999 -SHRA BKN034CB BKN100 16/15 Q1010 R10/290050 NOSIG

EXPIRED METARs :
  • 291630Z 02002MPS 6000 -SHRA BKN014CB OVC100 17/15 Q1010 R10/290050 TEMPO 3000
  • 291600Z 21004MPS 9999 SCT042CB BKN100 17/15 Q1010 R10/290050 TEMPO 3000 -SHRA
  • 291530Z 01006G09MPS 9999 SCT046CB BKN100 17/15 Q1010 R10/290050 TEMPO 3000 -SHRA
  • 291500Z 01006G09MPS 8000 -SHRA BKN048CB BKN100 17/15 Q1010 R10/290050 TEMPO 2000 SHRA

TAF TAF UMGG
Valid from the 29 at 18:00 until the 30 at 18:00 UTC


291657Z 2918/3018 03005MPS 3000 -RA BR BKN005
TEMPO 2918/3003 VRB12MPS 1200 TSRA SQ BKN004 BKN020CB
TEMPO 3003/3016 VRB14MPS 0600 +TSRA SQ BKN003 BKN015CB
BECMG 3016/3018 12005MPS
TEMPO 3016/3018 1200 SHRA BKN020CB



MET'MAP, your aeronautical weather chart ! - Copyright ORBIFLY December 2007 - Disclaimer

ORBIFLY MET'MAP TEAM :

Programming & Development : Alexandra Zaïnal
Concept & original design : Baudouin d'Aumeries
Assistance for programming : Marc-Olivier Méhu
Technical & hardware support : Manuel Goepfert

Contact : metmap@orbifly.com




SOURCES & CREDITS :

   NOAA